Time;durP1;ratioP1;P1;durP2;ratioP2;P2;SDS_P1;SDS_P2;PMS_P1;PMS_P2;Temp;Humidity;BMP_temperature;BMP_pressure;BME280_temperature;BME280_humidity;BME280_pressure;Samples;Min_cycle;Max_cycle;Signal;HPM_P1;HPM_P2
2023/03/02 00:01:28;;;;;;;36.63;27.13;;;5.80;97.60;;;;;;5112392;28;20222;-78
2023/03/02 00:04:01;;;;;;;32.42;26.45;;;5.80;97.60;;;;;;5113617;28;20219;-74
2023/03/02 00:06:31;;;;;;;34.83;26.20;;;5.80;97.60;;;;;;5113663;28;20287;-78
2023/03/02 00:09:04;;;;;;;36.20;25.38;;;5.80;97.70;;;;;;5098497;28;20243;-78
2023/03/02 00:11:34;;;;;;;28.95;25.02;;;5.70;97.70;;;;;;5092119;28;20273;-78
2023/03/02 00:14:01;;;;;;;32.00;25.88;;;5.70;97.80;;;;;;5093111;28;20219;-76
2023/03/02 00:16:30;;;;;;;30.42;26.85;;;5.70;97.90;;;;;;5092559;28;20223;-78
2023/03/02 00:18:57;;;;;;;27.15;23.25;;;5.70;97.90;;;;;;5092388;28;20230;-74
2023/03/02 00:21:24;;;;;;;29.70;25.50;;;5.60;98.00;;;;;;5074502;28;20569;-77
2023/03/02 00:23:53;;;;;;;31.77;23.90;;;5.60;98.00;;;;;;5072750;28;20325;-78
2023/03/02 00:26:20;;;;;;;26.30;23.23;;;5.50;98.00;;;;;;5071755;28;20224;-75
2023/03/02 00:28:47;;;;;;;27.65;23.17;;;5.50;98.00;;;;;;5072506;28;20680;-79
2023/03/02 00:31:15;;;;;;;29.35;21.15;;;5.50;97.90;;;;;;5072663;28;20255;-74
2023/03/02 00:33:42;;;;;;;22.23;19.92;;;5.50;98.00;;;;;;5072071;28;20665;-74
2023/03/02 00:36:19;;;;;;;28.48;20.90;;;5.50;98.00;;;;;;5072530;28;20220;-75
2023/03/02 00:38:50;;;;;;;21.30;19.00;;;5.40;98.00;;;;;;5091052;28;20237;-74
2023/03/02 00:41:20;;;;;;;22.02;17.00;;;5.40;98.00;;;;;;5072176;28;20224;-75
2023/03/02 00:43:48;;;;;;;20.33;17.52;;;5.40;98.00;;;;;;5072049;28;20220;-74
2023/03/02 00:46:17;;;;;;;20.80;17.23;;;5.40;98.00;;;;;;5072503;28;20224;-78
2023/03/02 00:48:45;;;;;;;20.80;16.98;;;5.30;98.00;;;;;;5072119;28;20220;-73
2023/03/02 00:51:12;;;;;;;22.10;17.13;;;5.30;98.00;;;;;;5072393;28;20216;-74
2023/03/02 00:53:40;;;;;;;19.75;16.98;;;5.30;98.10;;;;;;5072475;28;20281;-78
2023/03/02 00:56:09;;;;;;;20.23;15.85;;;5.30;98.20;;;;;;5072392;28;20560;-78
2023/03/02 00:58:37;;;;;;;22.58;15.68;;;5.20;98.40;;;;;;5071225;28;20235;-74
2023/03/02 01:01:07;;;;;;;18.98;14.23;;;5.20;98.60;;;;;;5072679;28;20220;-78
2023/03/02 01:03:34;;;;;;;19.30;14.32;;;5.20;98.70;;;;;;5062336;28;20561;-78
2023/03/02 01:06:01;;;;;;;17.80;13.90;;;5.10;98.80;;;;;;5072314;28;20231;-78
2023/03/02 01:08:28;;;;;;;16.23;13.38;;;5.10;99.00;;;;;;5072066;28;20293;-77
2023/03/02 01:10:55;;;;;;;16.77;14.02;;;5.10;99.20;;;;;;5072365;28;20223;-78
2023/03/02 01:13:23;;;;;;;18.85;15.10;;;5.10;99.30;;;;;;5072490;28;20572;-74
2023/03/02 01:16:00;;;;;;;20.88;14.40;;;5.10;99.50;;;;;;5071964;28;20277;-77
2023/03/02 01:18:31;;;;;;;18.85;14.98;;;5.10;99.60;;;;;;5071920;28;20239;-77
2023/03/02 01:21:02;;;;;;;18.38;14.27;;;5.10;99.80;;;;;;5072824;28;20226;-74
2023/03/02 01:23:29;;;;;;;20.30;15.90;;;5.10;99.90;;;;;;5071111;28;20232;-77
2023/03/02 01:25:59;;;;;;;16.88;14.52;;;5.10;99.90;;;;;;5070341;28;20238;-77
2023/03/02 01:28:26;;;;;;;17.17;15.38;;;5.10;99.90;;;;;;5072013;28;20277;-74
2023/03/02 01:30:54;;;;;;;19.52;14.68;;;5.10;99.90;;;;;;5071958;28;20274;-74
2023/03/02 01:33:22;;;;;;;21.45;15.88;;;5.00;99.90;;;;;;5072221;28;20228;-77
2023/03/02 01:35:48;;;;;;;17.98;14.75;;;5.00;99.90;;;;;;5072250;28;20306;-77
2023/03/02 01:38:15;;;;;;;18.85;15.15;;;5.00;99.90;;;;;;5085457;28;20283;-77
2023/03/02 01:40:42;;;;;;;17.15;13.18;;;5.00;99.90;;;;;;5078870;28;20595;-78
2023/03/02 01:43:13;;;;;;;16.38;14.68;;;5.00;99.90;;;;;;5076483;28;20228;-78
2023/03/02 01:46:00;;;;;;;22.77;15.60;;;4.90;99.90;;;;;;5075999;28;20285;-77
2023/03/02 01:48:33;;;;;;;21.00;15.43;;;4.90;99.90;;;;;;5075794;28;20228;-78
2023/03/02 01:51:02;;;;;;;19.48;15.15;;;4.90;99.90;;;;;;5094087;28;20219;-73
2023/03/02 01:53:32;;;;;;;21.02;14.70;;;4.90;99.90;;;;;;5095758;28;20750;-74
2023/03/02 01:56:01;;;;;;;23.48;15.45;;;4.90;99.90;;;;;;5095281;28;20215;-73
2023/03/02 01:58:32;;;;;;;19.13;15.45;;;4.90;99.90;;;;;;5096131;28;20693;-74
2023/03/02 02:01:03;;;;;;;21.70;17.20;;;4.90;99.90;;;;;;5074916;28;20250;-74
2023/03/02 02:03:31;;;;;;;20.23;15.35;;;4.90;99.90;;;;;;5075100;28;20277;-76
2023/03/02 02:06:11;;;;;;;21.17;17.25;;;4.90;99.90;;;;;;5075005;28;20235;-73
2023/03/02 02:08:39;;;;;;;20.20;15.45;;;4.90;99.90;;;;;;5074054;28;20692;-75
2023/03/02 02:11:06;;;;;;;15.25;13.38;;;4.90;99.90;;;;;;5075611;28;20579;-74
2023/03/02 02:13:33;;;;;;;16.75;14.02;;;4.90;99.90;;;;;;5075268;28;20627;-77
2023/03/02 02:16:01;;;;;;;21.05;15.90;;;4.90;99.90;;;;;;5074519;28;20291;-74
2023/03/02 02:18:28;;;;;;;17.67;14.00;;;4.90;99.90;;;;;;5075143;28;20258;-78
2023/03/02 02:20:56;;;;;;;16.13;12.43;;;4.90;99.90;;;;;;5073688;28;20319;-73
2023/03/02 02:23:27;;;;;;;19.08;15.20;;;4.80;99.90;;;;;;5064436;28;20305;-73
2023/03/02 02:26:17;;;;;;;19.90;15.32;;;4.80;99.90;;;;;;5071629;28;20255;-74
2023/03/02 02:28:49;;;;;;;18.80;14.85;;;4.80;99.90;;;;;;5074114;28;20311;-74
2023/03/02 02:31:21;;;;;;;20.30;14.18;;;4.80;99.90;;;;;;5073047;28;20252;-73
2023/03/02 02:33:53;;;;;;;18.02;13.77;;;4.80;99.90;;;;;;5074342;28;20224;-77
2023/03/02 02:36:31;;;;;;;17.70;13.82;;;4.80;99.90;;;;;;5088657;28;20475;-74
2023/03/02 02:39:02;;;;;;;19.27;14.05;;;4.80;99.90;;;;;;5093963;28;20269;-73
2023/03/02 02:41:35;;;;;;;18.27;12.93;;;4.70;99.90;;;;;;5093322;28;20749;-77
2023/03/02 02:44:02;;;;;;;21.55;16.23;;;4.70;99.90;;;;;;5086697;28;21098;-77
2023/03/02 02:46:30;;;;;;;15.25;13.07;;;4.70;99.90;;;;;;5090566;28;20223;-74
2023/03/02 02:48:59;;;;;;;17.33;14.07;;;4.60;99.90;;;;;;5064366;28;20293;-73
2023/03/02 02:51:34;;;;;;;16.75;13.40;;;4.60;99.90;;;;;;5080501;28;20307;-77
2023/03/02 02:54:03;;;;;;;14.85;12.50;;;4.60;99.90;;;;;;5070617;28;20281;-73
2023/03/02 02:56:36;;;;;;;17.08;14.30;;;4.60;99.90;;;;;;5075001;28;20228;-78
2023/03/02 02:59:07;;;;;;;22.25;15.30;;;4.60;99.90;;;;;;5079836;28;20227;-78
2023/03/02 03:01:34;;;;;;;19.85;14.10;;;4.60;99.90;;;;;;5094258;28;20219;-78
2023/03/02 03:04:04;;;;;;;18.80;13.75;;;4.60;99.90;;;;;;5094126;28;20255;-74
2023/03/02 03:06:41;;;;;;;18.73;13.85;;;4.60;99.90;;;;;;5094572;28;20238;-74
2023/03/02 03:09:09;;;;;;;20.10;14.45;;;4.60;99.90;;;;;;5084223;28;20238;-73
2023/03/02 03:11:42;;;;;;;19.10;14.68;;;4.60;99.90;;;;;;5094340;28;20680;-78
2023/03/02 03:14:11;;;;;;;18.60;12.85;;;4.60;99.90;;;;;;5078592;28;20251;-77
2023/03/02 03:16:40;;;;;;;18.33;14.77;;;4.60;99.90;;;;;;5078630;28;20653;-74
2023/03/02 03:19:13;;;;;;;20.08;13.75;;;4.60;99.90;;;;;;5070624;28;20298;-78
2023/03/02 03:21:40;;;;;;;15.75;13.27;;;4.60;99.90;;;;;;5054320;28;20224;-74
2023/03/02 03:24:08;;;;;;;19.75;14.23;;;4.60;99.90;;;;;;5053463;28;20229;-74
2023/03/02 03:26:35;;;;;;;16.45;14.40;;;4.50;99.90;;;;;;5053702;28;20228;-77
2023/03/02 03:29:04;;;;;;;15.77;13.93;;;4.50;99.90;;;;;;5041770;28;20682;-77
2023/03/02 03:31:31;;;;;;;17.92;15.55;;;4.50;99.90;;;;;;5053680;28;20236;-77
2023/03/02 03:33:59;;;;;;;19.63;13.73;;;4.50;99.90;;;;;;5053331;28;20274;-78
2023/03/02 03:36:27;;;;;;;16.15;12.55;;;4.50;99.90;;;;;;5054246;28;20573;-74
2023/03/02 03:38:56;;;;;;;17.42;12.95;;;4.50;99.90;;;;;;5052978;28;20220;-74
2023/03/02 03:41:24;;;;;;;21.88;13.25;;;4.50;99.90;;;;;;5053040;28;20554;-74
2023/03/02 03:43:52;;;;;;;14.18;11.75;;;4.50;99.90;;;;;;5059192;28;20220;-77
2023/03/02 03:46:24;;;;;;;15.20;12.85;;;4.50;99.90;;;;;;5072055;28;20568;-73
2023/03/02 03:48:51;;;;;;;14.70;12.95;;;4.50;99.90;;;;;;5074165;28;20242;-77
2023/03/02 03:51:18;;;;;;;19.58;13.50;;;4.50;99.90;;;;;;5073209;28;20250;-77
2023/03/02 03:53:46;;;;;;;17.15;13.10;;;4.50;99.90;;;;;;5073517;28;20289;-77
2023/03/02 03:56:21;;;;;;;18.70;13.63;;;4.50;99.90;;;;;;5072606;28;20293;-74
2023/03/02 03:58:48;;;;;;;17.33;13.18;;;4.40;99.90;;;;;;5073426;28;20624;-74
2023/03/02 04:01:15;;;;;;;17.50;13.68;;;4.40;99.90;;;;;;5072184;28;20673;-78
2023/03/02 04:03:44;;;;;;;16.13;12.65;;;4.40;99.90;;;;;;5072888;28;20314;-78
2023/03/02 04:06:17;;;;;;;18.60;13.30;;;4.40;99.90;;;;;;5072270;28;20262;-78
2023/03/02 04:08:44;;;;;;;17.80;13.77;;;4.30;99.90;;;;;;5072666;28;20224;-74
2023/03/02 04:11:11;;;;;;;15.40;13.80;;;4.30;99.90;;;;;;5068824;28;20227;-74
2023/03/02 04:13:38;;;;;;;19.17;14.85;;;4.20;99.90;;;;;;5053070;28;20224;-78
2023/03/02 04:16:06;;;;;;;16.65;14.00;;;4.20;99.90;;;;;;5063383;28;20228;-77
2023/03/02 04:18:33;;;;;;;19.85;14.35;;;4.20;99.90;;;;;;5061359;28;20224;-78
2023/03/02 04:21:01;;;;;;;16.90;14.68;;;4.20;99.90;;;;;;5072861;28;20578;-78
2023/03/02 04:23:29;;;;;;;23.70;14.85;;;4.20;99.90;;;;;;5072311;28;20658;-74
2023/03/02 04:25:56;;;;;;;17.30;13.65;;;4.10;99.90;;;;;;5072637;28;20235;-74
2023/03/02 04:28:23;;;;;;;17.60;14.00;;;4.10;99.90;;;;;;5072075;28;20228;-78
2023/03/02 04:30:50;;;;;;;18.33;15.45;;;4.10;99.90;;;;;;5072757;28;20231;-74
2023/03/02 04:33:17;;;;;;;16.33;13.68;;;4.10;99.90;;;;;;5071971;28;20705;-78
2023/03/02 04:35:44;;;;;;;18.60;13.82;;;4.10;99.90;;;;;;5072979;28;20615;-78
2023/03/02 04:38:12;;;;;;;17.10;13.00;;;4.10;99.90;;;;;;5077829;28;20262;-78
2023/03/02 04:40:39;;;;;;;17.30;14.73;;;4.10;99.90;;;;;;5076375;28;20281;-74
2023/03/02 04:43:06;;;;;;;21.45;16.15;;;4.10;99.90;;;;;;5068384;28;20224;-78
2023/03/02 04:45:39;;;;;;;18.58;14.95;;;4.10;99.90;;;;;;5091398;28;20559;-75
2023/03/02 04:48:07;;;;;;;20.85;15.88;;;4.00;99.90;;;;;;5084774;28;20237;-77
2023/03/02 04:50:34;;;;;;;20.75;15.32;;;4.10;99.90;;;;;;5075068;28;20738;-74
2023/03/02 04:53:01;;;;;;;24.75;17.20;;;4.00;99.90;;;;;;5081270;28;20227;-78
2023/03/02 04:55:30;;;;;;;25.92;18.60;;;4.00;99.90;;;;;;5071736;28;20638;-75
2023/03/02 04:57:57;;;;;;;23.13;17.15;;;3.90;99.90;;;;;;5072462;28;20677;-74
2023/03/02 05:00:24;;;;;;;23.98;16.85;;;3.90;99.90;;;;;;5071615;28;20707;-78
2023/03/02 05:02:51;;;;;;;20.17;16.92;;;3.80;99.90;;;;;;5071625;28;20246;-78
2023/03/02 05:05:21;;;;;;;27.40;17.60;;;3.80;99.90;;;;;;5070893;28;20224;-75
2023/03/02 05:07:48;;;;;;;21.48;17.50;;;3.80;99.90;;;;;;5072381;28;20674;-74
2023/03/02 05:10:17;;;;;;;21.98;16.73;;;3.80;99.90;;;;;;5071685;28;20250;-78
2023/03/02 05:12:56;;;;;;;26.85;18.50;;;3.80;99.90;;;;;;5072652;28;20224;-78
2023/03/02 05:15:24;;;;;;;21.73;17.98;;;3.80;99.90;;;;;;5070730;28;20228;-78
2023/03/02 05:17:51;;;;;;;21.73;17.33;;;3.80;99.90;;;;;;5072084;28;20228;-75
2023/03/02 05:20:19;;;;;;;24.20;17.85;;;3.70;99.90;;;;;;5071478;28;20666;-75
2023/03/02 05:22:46;;;;;;;24.00;17.27;;;3.70;99.90;;;;;;5072291;28;20227;-75
2023/03/02 05:25:14;;;;;;;24.27;17.77;;;3.60;99.90;;;;;;5070911;28;20228;-75
2023/03/02 05:27:41;;;;;;;24.45;19.02;;;3.60;99.90;;;;;;5072090;28;20314;-78
2023/03/02 05:30:11;;;;;;;25.23;20.10;;;3.50;99.90;;;;;;5071965;28;20599;-78
2023/03/02 05:32:38;;;;;;;25.65;18.50;;;3.50;99.90;;;;;;5071581;28;20216;-74
2023/03/02 05:35:06;;;;;;;23.42;17.75;;;3.40;99.90;;;;;;5071233;28;20244;-77
2023/03/02 05:37:33;;;;;;;24.10;17.90;;;3.40;99.90;;;;;;5069844;28;20285;-79
2023/03/02 05:40:00;;;;;;;24.95;17.85;;;3.40;99.90;;;;;;5071595;28;20216;-78
2023/03/02 05:42:29;;;;;;;20.83;17.30;;;3.30;99.90;;;;;;5071051;28;20295;-75
2023/03/02 05:44:55;;;;;;;21.65;18.92;;;3.30;99.90;;;;;;5086736;28;20227;-75
2023/03/02 05:47:24;;;;;;;24.55;18.52;;;3.30;99.90;;;;;;5090219;28;20231;-78
2023/03/02 05:49:51;;;;;;;24.33;18.10;;;3.20;99.90;;;;;;5088718;28;20608;-78
2023/03/02 05:52:18;;;;;;;28.90;19.63;;;3.10;99.90;;;;;;5088233;28;20234;-74
2023/03/02 05:54:45;;;;;;;27.77;19.80;;;3.10;99.90;;;;;;5090396;28;20276;-75
2023/03/02 05:57:12;;;;;;;31.58;20.77;;;3.00;99.90;;;;;;5090392;28;20708;-79
2023/03/02 05:59:39;;;;;;;28.30;17.95;;;2.90;99.90;;;;;;5089846;28;20223;-79
2023/03/02 06:02:06;;;;;;;27.95;18.90;;;2.90;99.90;;;;;;5090904;28;20262;-78
2023/03/02 06:04:34;;;;;;;29.92;19.02;;;2.90;99.90;;;;;;5091971;28;20546;-74
2023/03/02 06:07:26;;;;;;;34.00;22.10;;;2.80;99.90;;;;;;5092244;28;20216;-75
2023/03/02 06:09:53;;;;;;;24.15;18.17;;;2.80;99.90;;;;;;5087810;28;20228;-78
2023/03/02 06:12:20;;;;;;;29.20;18.67;;;2.80;99.90;;;;;;5091939;28;20268;-75
2023/03/02 06:14:47;;;;;;;29.92;19.60;;;2.80;99.90;;;;;;5091838;28;20229;-78
2023/03/02 06:17:14;;;;;;;27.40;19.65;;;2.90;99.90;;;;;;5091553;28;20234;-79
2023/03/02 06:19:43;;;;;;;32.53;20.33;;;2.90;99.90;;;;;;5091838;28;20280;-74
2023/03/02 06:22:10;;;;;;;36.03;22.10;;;2.90;99.90;;;;;;5091100;28;20220;-78
2023/03/02 06:24:37;;;;;;;36.85;20.92;;;2.80;99.90;;;;;;5092371;28;20235;-79
2023/03/02 06:27:04;;;;;;;29.65;20.30;;;2.80;99.90;;;;;;5094996;28;20586;-78
2023/03/02 06:29:32;;;;;;;36.10;22.23;;;2.80;99.90;;;;;;5095199;28;20288;-74
2023/03/02 06:32:02;;;;;;;33.30;19.85;;;2.70;99.90;;;;;;5094412;28;20219;-73
2023/03/02 06:34:31;;;;;;;35.38;20.08;;;2.70;99.90;;;;;;5085818;28;20321;-73
2023/03/02 06:37:00;;;;;;;34.33;21.30;;;2.70;99.90;;;;;;5095458;28;20230;-73
2023/03/02 06:39:27;;;;;;;27.42;18.10;;;2.60;99.90;;;;;;5094962;28;20632;-78
2023/03/02 06:41:54;;;;;;;31.38;19.05;;;2.50;99.90;;;;;;5095305;28;20220;-73
2023/03/02 06:44:21;;;;;;;22.95;17.35;;;2.50;99.90;;;;;;5094183;28;20230;-73
2023/03/02 06:46:48;;;;;;;25.40;17.40;;;2.40;99.90;;;;;;5095405;28;20223;-77
2023/03/02 06:49:15;;;;;;;27.02;18.38;;;2.40;99.90;;;;;;5094682;28;20273;-78
2023/03/02 06:51:42;;;;;;;30.17;19.42;;;2.40;99.90;;;;;;5094973;28;20495;-78
2023/03/02 06:54:15;;;;;;;27.35;17.67;;;2.30;99.90;;;;;;5092636;28;20274;-76
2023/03/02 06:56:42;;;;;;;25.25;18.15;;;2.20;99.90;;;;;;5094265;28;20273;-74
2023/03/02 06:59:09;;;;;;;30.95;19.80;;;2.30;99.90;;;;;;5094167;28;20348;-74
2023/03/02 07:01:36;;;;;;;24.73;17.63;;;2.20;99.90;;;;;;5093392;28;20247;-79
2023/03/02 07:04:03;;;;;;;29.10;17.20;;;2.30;99.90;;;;;;5094490;28;20293;-75
2023/03/02 07:06:30;;;;;;;27.27;18.23;;;2.30;99.90;;;;;;5094308;28;20238;-78
2023/03/02 07:08:56;;;;;;;30.38;19.35;;;2.20;99.90;;;;;;5093641;28;20227;-78
2023/03/02 07:11:25;;;;;;;29.25;18.75;;;2.20;99.90;;;;;;5094290;28;20219;-78
2023/03/02 07:13:52;;;;;;;32.08;20.63;;;2.20;99.90;;;;;;5094566;28;20235;-78
2023/03/02 07:16:19;;;;;;;31.45;20.17;;;2.20;99.90;;;;;;5093781;28;20223;-75
2023/03/02 07:18:46;;;;;;;27.08;18.58;;;2.20;99.90;;;;;;5094235;28;20276;-78
2023/03/02 07:21:13;;;;;;;26.38;19.65;;;2.20;99.90;;;;;;5092514;28;20223;-79
2023/03/02 07:23:40;;;;;;;29.98;20.70;;;2.20;99.90;;;;;;5093401;28;20242;-78
2023/03/02 07:26:07;;;;;;;26.45;18.83;;;2.20;99.90;;;;;;5094401;28;20230;-78
2023/03/02 07:28:38;;;;;;;28.63;18.70;;;2.10;99.90;;;;;;5093283;28;20231;-74
2023/03/02 07:31:05;;;;;;;27.33;19.23;;;2.20;99.90;;;;;;5094145;28;20219;-78
2023/03/02 07:33:32;;;;;;;30.05;19.60;;;2.20;99.90;;;;;;5093759;28;20257;-74
2023/03/02 07:35:59;;;;;;;30.95;18.63;;;2.20;99.90;;;;;;5094534;28;20336;-74
2023/03/02 07:38:26;;;;;;;29.92;20.20;;;2.20;99.90;;;;;;5092041;28;20280;-74
2023/03/02 07:40:54;;;;;;;28.70;18.73;;;2.30;99.90;;;;;;5094400;28;20676;-78
2023/03/02 07:43:22;;;;;;;29.27;19.35;;;2.30;99.90;;;;;;5093182;28;20230;-78
2023/03/02 07:45:51;;;;;;;25.90;19.05;;;2.40;99.90;;;;;;5093698;28;20310;-78
2023/03/02 07:48:18;;;;;;;30.02;19.38;;;2.40;99.90;;;;;;5093982;28;20553;-78
2023/03/02 07:50:45;;;;;;;30.05;20.45;;;2.50;99.90;;;;;;5093088;28;20234;-78
2023/03/02 07:53:12;;;;;;;32.67;19.58;;;2.50;99.90;;;;;;5093451;28;20302;-78
2023/03/02 07:55:41;;;;;;;31.83;20.55;;;2.50;99.90;;;;;;5095569;28;20223;-74
2023/03/02 07:58:11;;;;;;;33.08;20.75;;;2.50;99.90;;;;;;5092858;28;20223;-78
2023/03/02 08:00:38;;;;;;;29.33;18.60;;;2.50;99.90;;;;;;5092309;28;20752;-74
2023/03/02 08:03:06;;;;;;;30.70;20.33;;;2.50;99.90;;;;;;5093921;28;20215;-78
2023/03/02 08:05:33;;;;;;;30.55;20.45;;;2.50;99.90;;;;;;5093063;28;20719;-78
2023/03/02 08:08:00;;;;;;;28.23;18.88;;;2.60;99.90;;;;;;5093358;28;20227;-74
2023/03/02 08:10:27;;;;;;;31.65;21.30;;;2.60;99.90;;;;;;5092943;28;20306;-75
2023/03/02 08:12:54;;;;;;;33.45;19.42;;;2.60;99.90;;;;;;5093535;28;20219;-74
2023/03/02 08:15:22;;;;;;;34.05;21.27;;;2.70;99.90;;;;;;5092963;28;20689;-74
2023/03/02 08:17:49;;;;;;;37.28;24.83;;;2.80;99.90;;;;;;5093639;28;20223;-78
2023/03/02 08:20:23;;;;;;;34.42;22.23;;;2.80;99.90;;;;;;5093975;28;20306;-78
2023/03/02 08:22:51;;;;;;;38.38;21.95;;;2.80;99.90;;;;;;5092534;28;20276;-73
2023/03/02 08:25:23;;;;;;;42.22;24.00;;;2.80;99.90;;;;;;5093370;28;20223;-74
2023/03/02 08:27:50;;;;;;;33.78;21.40;;;2.90;99.90;;;;;;5094177;28;20645;-78
2023/03/02 08:30:18;;;;;;;37.90;23.60;;;2.90;99.90;;;;;;5093843;28;20292;-78
2023/03/02 08:35:45;;;;;;;38.20;23.98;;;3.10;99.90;;;;;;5066385;28;20231;-74
2023/03/02 08:38:14;;;;;;;34.97;22.98;;;3.10;99.90;;;;;;5093670;28;20231;-78
2023/03/02 08:40:41;;;;;;;34.58;21.77;;;3.20;99.90;;;;;;5093270;28;20347;-73
2023/03/02 08:43:11;;;;;;;35.78;23.42;;;3.20;99.90;;;;;;5092464;28;20219;-78
2023/03/02 08:45:38;;;;;;;32.78;22.60;;;3.20;99.90;;;;;;5093267;28;20564;-73
2023/03/02 08:48:06;;;;;;;34.20;22.80;;;3.30;99.90;;;;;;5092049;28;20235;-78
2023/03/02 08:50:32;;;;;;;35.10;21.35;;;3.30;99.90;;;;;;5093370;28;20289;-78
2023/03/02 08:53:01;;;;;;;35.72;22.90;;;3.40;99.90;;;;;;5086127;28;20230;-78
2023/03/02 08:55:28;;;;;;;34.30;22.13;;;3.30;99.90;;;;;;5094592;28;20231;-73
2023/03/02 08:57:54;;;;;;;32.30;19.60;;;3.30;99.90;;;;;;5091314;28;20231;-74
2023/03/02 09:00:22;;;;;;;30.40;20.90;;;3.40;99.90;;;;;;5092506;28;20288;-74
2023/03/02 09:02:48;;;;;;;37.10;21.98;;;3.40;99.90;;;;;;5092048;28;20223;-75
2023/03/02 09:05:16;;;;;;;33.38;21.85;;;3.40;99.90;;;;;;5091866;28;20254;-78
2023/03/02 09:07:43;;;;;;;33.80;21.20;;;3.40;99.90;;;;;;5083765;28;20273;-78
2023/03/02 09:10:11;;;;;;;30.50;20.90;;;3.40;99.90;;;;;;5091821;28;20231;-78
2023/03/02 09:12:39;;;;;;;31.25;21.98;;;3.50;99.90;;;;;;5092487;28;20958;-75
2023/03/02 09:15:07;;;;;;;27.50;19.70;;;3.50;99.90;;;;;;5092484;28;20231;-74
2023/03/02 09:17:34;;;;;;;31.20;21.13;;;3.60;99.90;;;;;;5092582;28;20238;-74
2023/03/02 09:20:41;;;;;;;30.42;20.88;;;3.60;99.90;;;;;;5081067;28;20235;-74
2023/03/02 09:23:09;;;;;;;31.73;21.98;;;3.60;99.90;;;;;;5084298;28;20630;-77
2023/03/02 09:25:38;;;;;;;33.50;22.02;;;3.70;99.90;;;;;;5101047;28;20222;-77
2023/03/02 09:28:05;;;;;;;33.13;22.50;;;3.60;99.90;;;;;;5099010;28;20231;-73
2023/03/02 09:30:32;;;;;;;34.58;22.88;;;3.60;99.90;;;;;;5095870;28;20297;-74
2023/03/02 09:32:59;;;;;;;33.70;21.58;;;3.70;99.90;;;;;;5091690;28;20280;-77
2023/03/02 09:35:26;;;;;;;35.88;22.52;;;3.80;99.90;;;;;;5092780;28;20661;-77
2023/03/02 09:37:53;;;;;;;27.73;21.45;;;3.80;99.90;;;;;;5092105;28;20519;-78
2023/03/02 09:40:23;;;;;;;28.80;20.95;;;3.90;99.90;;;;;;5091446;28;20222;-74
2023/03/02 09:43:14;;;;;;;27.40;20.80;;;3.90;99.90;;;;;;5091521;28;20276;-74
2023/03/02 09:46:01;;;;;;;25.85;19.40;;;3.90;99.90;;;;;;5092129;28;20669;-78
2023/03/02 09:48:36;;;;;;;29.40;20.35;;;4.00;99.90;;;;;;5092430;28;20223;-77
2023/03/02 09:51:25;;;;;;;26.50;19.00;;;4.00;99.90;;;;;;5090947;28;20218;-77
2023/03/02 09:54:00;;;;;;;27.20;19.08;;;4.10;99.90;;;;;;5091876;28;20280;-74
2023/03/02 09:56:27;;;;;;;28.40;19.75;;;4.10;99.90;;;;;;5092330;28;20669;-73
2023/03/02 09:59:01;;;;;;;25.85;18.55;;;4.20;99.90;;;;;;5079553;28;20227;-74
2023/03/02 10:01:39;;;;;;;29.00;20.05;;;4.20;99.90;;;;;;5094024;28;20285;-78
2023/03/02 10:04:17;;;;;;;26.25;18.92;;;4.20;99.90;;;;;;5095728;28;20219;-74
2023/03/02 10:06:44;;;;;;;28.05;17.33;;;4.30;99.90;;;;;;5095384;28;20231;-75
2023/03/02 10:09:11;;;;;;;25.48;18.08;;;4.30;99.90;;;;;;5095231;28;20296;-74
2023/03/02 10:11:48;;;;;;;27.00;19.73;;;4.30;99.90;;;;;;5095518;28;20231;-78
2023/03/02 10:14:24;;;;;;;31.13;21.90;;;4.40;99.90;;;;;;5095116;28;20219;-75
2023/03/02 10:16:55;;;;;;;30.85;21.05;;;4.30;99.90;;;;;;5095642;28;20316;-78
2023/03/02 10:19:31;;;;;;;29.27;20.02;;;4.30;99.90;;;;;;5094600;28;20227;-78
2023/03/02 10:22:03;;;;;;;28.17;20.95;;;4.30;99.90;;;;;;5095265;28;20222;-74
2023/03/02 10:24:37;;;;;;;25.98;19.60;;;4.30;99.90;;;;;;5095961;28;20219;-79
2023/03/02 10:27:16;;;;;;;24.02;16.90;;;4.30;99.90;;;;;;5094098;28;20683;-74
2023/03/02 10:29:53;;;;;;;29.63;19.60;;;4.30;99.90;;;;;;5094851;28;20239;-74
2023/03/02 10:32:22;;;;;;;24.00;17.90;;;4.30;99.90;;;;;;5094775;28;20219;-78
2023/03/02 10:34:50;;;;;;;25.00;17.67;;;4.40;99.90;;;;;;5094953;28;20234;-74
2023/03/02 10:37:20;;;;;;;22.00;17.77;;;4.40;99.90;;;;;;5094799;28;20223;-74
2023/03/02 10:39:49;;;;;;;25.77;18.27;;;4.40;99.90;;;;;;5095094;28;20231;-74
2023/03/02 10:42:19;;;;;;;23.67;18.25;;;4.40;99.90;;;;;;5094431;28;20219;-78
2023/03/02 10:44:51;;;;;;;21.77;16.98;;;4.50;99.90;;;;;;5095221;28;20676;-78
2023/03/02 10:47:26;;;;;;;26.40;19.88;;;4.50;99.90;;;;;;5085071;28;20272;-74
2023/03/02 10:49:56;;;;;;;22.92;17.45;;;4.50;99.90;;;;;;5082914;28;20653;-79
2023/03/02 10:52:25;;;;;;;24.80;17.33;;;4.60;99.90;;;;;;5094423;28;20228;-74
2023/03/02 10:55:02;;;;;;;27.33;19.55;;;4.70;99.90;;;;;;5094500;28;20220;-74
2023/03/02 10:57:35;;;;;;;24.48;18.70;;;4.70;99.90;;;;;;5094187;28;20306;-74
2023/03/02 11:00:14;;;;;;;27.52;18.90;;;4.70;99.90;;;;;;5094290;28;20661;-75
2023/03/02 11:02:49;;;;;;;24.13;16.75;;;4.60;99.90;;;;;;5095298;28;20219;-75
2023/03/02 11:05:27;;;;;;;20.30;16.02;;;4.70;99.90;;;;;;5093344;28;20242;-79
2023/03/02 11:07:56;;;;;;;23.67;18.10;;;4.70;99.90;;;;;;5094497;28;20524;-75
2023/03/02 11:10:30;;;;;;;24.13;17.90;;;4.70;99.90;;;;;;5094380;28;20255;-75
2023/03/02 11:12:59;;;;;;;23.58;17.50;;;4.70;99.90;;;;;;5092506;28;20298;-75
2023/03/02 11:15:35;;;;;;;22.90;16.50;;;4.70;99.90;;;;;;5094574;28;20207;-78
2023/03/02 11:18:08;;;;;;;28.83;18.27;;;4.80;99.90;;;;;;5093444;28;20284;-78
2023/03/02 11:20:38;;;;;;;23.13;17.17;;;4.80;99.90;;;;;;5094223;28;20223;-74
2023/03/02 11:23:23;;;;;;;22.10;17.65;;;4.80;99.90;;;;;;5093988;28;20597;-74
2023/03/02 11:25:54;;;;;;;23.65;17.52;;;4.80;99.90;;;;;;5093481;28;20289;-74
2023/03/02 11:28:42;;;;;;;25.17;17.70;;;4.80;99.90;;;;;;5093811;28;20607;-74
2023/03/02 11:31:22;;;;;;;21.67;15.93;;;4.80;99.90;;;;;;5093730;28;20680;-79
2023/03/02 11:34:05;;;;;;;23.15;17.80;;;4.90;99.90;;;;;;5093878;28;20243;-75
2023/03/02 11:36:43;;;;;;;21.70;17.23;;;4.90;99.90;;;;;;5094289;28;20604;-77
2023/03/02 11:39:16;;;;;;;19.13;15.43;;;4.90;99.90;;;;;;5093341;28;20235;-74
2023/03/02 11:41:44;;;;;;;18.05;15.88;;;4.90;99.90;;;;;;5093610;28;20233;-74
2023/03/02 11:44:18;;;;;;;22.80;16.77;;;5.00;99.90;;;;;;5093543;28;20242;-79
2023/03/02 11:46:50;;;;;;;20.63;16.90;;;5.00;99.90;;;;;;5093974;28;20307;-74
2023/03/02 11:49:22;;;;;;;19.70;15.60;;;5.10;99.90;;;;;;5092761;28;20250;-78
2023/03/02 11:51:56;;;;;;;18.42;14.85;;;5.20;99.90;;;;;;5094346;28;20219;-78
2023/03/02 11:54:33;;;;;;;22.10;16.20;;;5.20;99.90;;;;;;5093758;28;20227;-79
2023/03/02 11:57:01;;;;;;;20.08;15.25;;;5.30;99.90;;;;;;5093132;28;20223;-78
2023/03/02 11:59:29;;;;;;;22.40;16.17;;;5.30;99.90;;;;;;5093005;28;20235;-75
2023/03/02 12:01:59;;;;;;;19.73;15.38;;;5.30;99.90;;;;;;5093908;28;20598;-79
2023/03/02 12:04:31;;;;;;;21.42;14.02;;;5.30;99.90;;;;;;5092394;28;20621;-78
2023/03/02 12:06:59;;;;;;;17.88;14.25;;;5.40;99.90;;;;;;5093620;28;20669;-74
2023/03/02 12:09:32;;;;;;;19.70;14.80;;;5.50;99.90;;;;;;5092804;28;20231;-79
2023/03/02 12:12:12;;;;;;;19.40;14.98;;;5.50;99.90;;;;;;5093438;28;20242;-78
2023/03/02 12:14:41;;;;;;;17.05;13.95;;;5.60;99.90;;;;;;5092693;28;20702;-78
2023/03/02 12:17:22;;;;;;;17.70;13.52;;;5.70;99.90;;;;;;5093266;28;20239;-78
2023/03/02 12:19:50;;;;;;;17.33;14.07;;;5.70;99.90;;;;;;5092576;28;20222;-74
2023/03/02 12:22:27;;;;;;;18.30;14.23;;;5.80;99.90;;;;;;5081552;28;20227;-74
2023/03/02 12:25:25;;;;;;;19.23;13.90;;;5.80;99.90;;;;;;5083742;28;20647;-76
2023/03/02 12:27:57;;;;;;;19.15;13.43;;;5.80;99.90;;;;;;5092572;28;20235;-78
2023/03/02 12:30:27;;;;;;;14.05;11.90;;;5.90;99.90;;;;;;5093159;28;20268;-78
2023/03/02 12:33:18;;;;;;;18.45;13.77;;;5.90;99.90;;;;;;5091667;28;20652;-77
2023/03/02 12:35:47;;;;;;;21.50;14.50;;;6.00;99.90;;;;;;5092135;28;20223;-78
2023/03/02 12:38:29;;;;;;;16.27;13.05;;;6.00;99.90;;;;;;5092828;28;20606;-74
2023/03/02 12:41:29;;;;;;;13.82;12.02;;;6.00;99.90;;;;;;5091447;28;20221;-74
2023/03/02 12:44:15;;;;;;;15.80;13.63;;;6.10;99.90;;;;;;5091732;28;20220;-74
2023/03/02 12:46:46;;;;;;;16.35;12.80;;;6.10;99.90;;;;;;5091960;28;20329;-73
2023/03/02 12:49:35;;;;;;;17.65;14.07;;;6.10;99.90;;;;;;5092294;28;20568;-78
2023/03/02 12:52:17;;;;;;;16.77;14.02;;;6.10;99.90;;;;;;5091070;28;20233;-78
2023/03/02 12:54:44;;;;;;;21.73;16.42;;;6.20;99.90;;;;;;5091906;28;20255;-75